Time;durP1;ratioP1;P1;durP2;ratioP2;P2;SDS_P1;SDS_P2;PMS_P1;PMS_P2;Temp;Humidity;BMP_temperature;BMP_pressure;BME280_temperature;BME280_humidity;BME280_pressure;Samples;Min_cycle;Max_cycle;Signal;HPM_P1;HPM_P2
2024/04/18 00:00:55;;;;;;;5.90;3.43;;;7.20;99.90;;;;;;5346007;26;20472;-68
2024/04/18 00:03:22;;;;;;;5.40;3.00;;;7.10;99.90;;;;;;5347306;26;20417;-68
2024/04/18 00:05:52;;;;;;;5.83;3.07;;;7.10;99.90;;;;;;5348084;26;20455;-69
2024/04/18 00:08:20;;;;;;;7.63;2.90;;;7.10;99.90;;;;;;5347677;26;20509;-69
2024/04/18 00:10:53;;;;;;;7.80;3.07;;;7.00;99.90;;;;;;5349557;26;20498;-68
2024/04/18 00:13:41;;;;;;;7.33;3.53;;;7.00;99.90;;;;;;5349351;26;20513;-69
2024/04/18 00:16:34;;;;;;;4.70;2.80;;;6.90;99.90;;;;;;5349295;26;20455;-68
2024/04/18 00:19:17;;;;;;;6.57;2.97;;;6.90;99.90;;;;;;5350290;26;20450;-68
2024/04/18 00:21:59;;;;;;;5.70;2.80;;;6.90;99.90;;;;;;5350302;26;20423;-68
2024/04/18 00:24:27;;;;;;;5.47;3.17;;;6.90;99.90;;;;;;5347628;26;20516;-68
2024/04/18 00:26:57;;;;;;;4.90;3.00;;;6.80;99.90;;;;;;5347532;26;20456;-68
2024/04/18 00:29:35;;;;;;;6.40;3.20;;;6.80;99.90;;;;;;5350214;26;20457;-68
2024/04/18 00:32:14;;;;;;;6.83;3.53;;;6.80;99.90;;;;;;5347671;26;20458;-68
2024/04/18 00:35:00;;;;;;;9.27;3.63;;;6.80;99.90;;;;;;5349695;26;20492;-68
2024/04/18 00:37:36;;;;;;;5.93;3.17;;;6.70;99.90;;;;;;5350613;26;20453;-69
2024/04/18 00:40:04;;;;;;;4.20;2.70;;;6.70;99.90;;;;;;5349237;26;20515;-68
2024/04/18 00:42:38;;;;;;;5.83;3.43;;;6.70;99.90;;;;;;5350217;26;21036;-68
2024/04/18 00:45:06;;;;;;;8.60;3.43;;;6.70;99.90;;;;;;5350347;26;20503;-68
2024/04/18 00:47:50;;;;;;;7.07;3.40;;;6.60;99.90;;;;;;5350337;26;20405;-68
2024/04/18 00:50:18;;;;;;;8.37;3.47;;;6.60;99.90;;;;;;5350151;26;20490;-68
2024/04/18 00:52:50;;;;;;;10.30;3.63;;;6.60;99.90;;;;;;5349066;26;20587;-68
2024/04/18 00:55:28;;;;;;;6.97;3.73;;;6.60;99.90;;;;;;5350070;26;20401;-68
2024/04/18 00:58:12;;;;;;;6.67;3.47;;;6.50;99.90;;;;;;5347081;26;20494;-68
2024/04/18 01:00:41;;;;;;;7.07;4.00;;;6.50;99.90;;;;;;5349802;26;20568;-68
2024/04/18 01:03:33;;;;;;;5.83;3.70;;;6.40;99.90;;;;;;5349919;26;20884;-68
2024/04/18 01:06:07;;;;;;;9.00;3.20;;;6.40;99.90;;;;;;5349851;26;20432;-68
2024/04/18 01:08:56;;;;;;;5.10;3.00;;;6.40;99.90;;;;;;5349697;26;20458;-68
2024/04/18 01:11:29;;;;;;;6.10;3.93;;;6.30;99.90;;;;;;5350393;26;20488;-68
2024/04/18 01:14:01;;;;;;;4.90;3.20;;;6.30;99.90;;;;;;5350222;26;20449;-68
2024/04/18 01:16:48;;;;;;;7.73;3.13;;;6.30;99.90;;;;;;5347924;26;20524;-68
2024/04/18 01:19:22;;;;;;;9.90;4.03;;;6.30;99.90;;;;;;5348799;26;20445;-68
2024/04/18 01:21:49;;;;;;;6.57;3.23;;;6.30;99.90;;;;;;5349961;26;20408;-68
2024/04/18 01:24:21;;;;;;;8.10;3.40;;;6.20;99.90;;;;;;5348563;26;20467;-68
2024/04/18 01:26:51;;;;;;;5.30;2.70;;;6.20;99.90;;;;;;5350051;26;20801;-68
2024/04/18 01:29:21;;;;;;;4.70;3.80;;;6.20;99.90;;;;;;5348649;26;20443;-68
2024/04/18 01:32:06;;;;;;;6.30;3.50;;;6.20;99.90;;;;;;5346712;26;20857;-68
2024/04/18 01:34:36;;;;;;;6.60;3.30;;;6.20;99.90;;;;;;5348378;26;20521;-68
2024/04/18 01:37:16;;;;;;;7.47;4.57;;;6.10;99.90;;;;;;5349379;26;20528;-68
2024/04/18 01:39:47;;;;;;;7.63;3.90;;;6.10;99.90;;;;;;5348423;26;20575;-68
2024/04/18 01:42:17;;;;;;;6.83;3.30;;;6.10;99.90;;;;;;5349740;26;20809;-68
2024/04/18 01:44:47;;;;;;;5.23;3.20;;;6.10;99.90;;;;;;5348187;26;20557;-68
2024/04/18 01:47:36;;;;;;;7.30;3.47;;;6.00;99.90;;;;;;5348591;26;20484;-68
2024/04/18 01:50:06;;;;;;;6.03;4.30;;;6.00;99.90;;;;;;5349447;26;20448;-68
2024/04/18 01:52:37;;;;;;;13.73;3.87;;;6.00;99.90;;;;;;5348167;26;20862;-68
2024/04/18 01:55:05;;;;;;;5.73;3.33;;;6.00;99.90;;;;;;5348969;26;20559;-68
2024/04/18 01:57:41;;;;;;;6.67;3.50;;;5.90;99.90;;;;;;5349487;26;20409;-68
2024/04/18 02:00:27;;;;;;;4.97;3.13;;;5.90;99.90;;;;;;5349328;26;20492;-68
2024/04/18 02:02:57;;;;;;;5.50;3.83;;;5.90;99.90;;;;;;5348122;26;20857;-68
2024/04/18 02:05:40;;;;;;;5.20;3.33;;;5.90;99.90;;;;;;5349283;26;20459;-68
2024/04/18 02:08:16;;;;;;;8.07;4.32;;;5.80;99.90;;;;;;5348149;26;20349;-68
2024/04/18 02:10:44;;;;;;;5.23;4.03;;;5.90;99.90;;;;;;5346107;26;20338;-68
2024/04/18 02:13:36;;;;;;;4.40;3.50;;;5.90;99.90;;;;;;5349169;26;20464;-68
2024/04/18 02:16:04;;;;;;;6.80;3.83;;;5.80;99.90;;;;;;5349205;26;20401;-68
2024/04/18 02:19:10;;;;;;;5.20;3.03;;;5.80;99.90;;;;;;5347628;26;20449;-68
2024/04/18 02:21:55;;;;;;;7.03;3.67;;;5.70;99.90;;;;;;5348410;26;20486;-68
2024/04/18 02:24:40;;;;;;;6.80;3.83;;;5.70;99.90;;;;;;5348302;26;20523;-68
2024/04/18 02:27:07;;;;;;;5.70;3.43;;;5.70;99.90;;;;;;5345982;26;20454;-68
2024/04/18 02:29:40;;;;;;;5.60;3.60;;;5.60;99.90;;;;;;5346043;26;20453;-68
2024/04/18 02:32:07;;;;;;;9.30;4.60;;;5.60;99.90;;;;;;5347982;26;20440;-68
2024/04/18 02:34:37;;;;;;;8.17;3.83;;;5.60;99.90;;;;;;5345754;26;21044;-68
2024/04/18 02:37:23;;;;;;;4.60;3.40;;;5.50;99.90;;;;;;5349174;26;20404;-68
2024/04/18 02:39:53;;;;;;;5.80;3.50;;;5.50;99.90;;;;;;5347694;26;20502;-68
2024/04/18 02:42:25;;;;;;;8.43;4.37;;;5.50;99.90;;;;;;5349228;26;20394;-68
2024/04/18 02:45:01;;;;;;;5.43;4.17;;;5.50;99.90;;;;;;5348871;26;20415;-68
2024/04/18 02:47:50;;;;;;;5.23;3.37;;;5.50;99.90;;;;;;5347303;26;20507;-68
2024/04/18 02:50:38;;;;;;;5.77;4.30;;;5.40;99.90;;;;;;5348702;26;20489;-68
2024/04/18 02:53:06;;;;;;;7.63;4.20;;;5.40;99.90;;;;;;5347339;26;20495;-68
2024/04/18 02:55:36;;;;;;;6.87;4.10;;;5.40;99.90;;;;;;5347363;26;20442;-68
2024/04/18 02:58:03;;;;;;;5.73;4.03;;;5.40;99.90;;;;;;5345488;26;20453;-68
2024/04/18 03:00:38;;;;;;;5.00;3.70;;;5.40;99.90;;;;;;5345389;26;20467;-68
2024/04/18 03:03:08;;;;;;;7.63;3.93;;;5.30;99.90;;;;;;5348539;26;20489;-68
2024/04/18 03:06:04;;;;;;;5.40;4.00;;;5.30;99.90;;;;;;5346784;26;21086;-68
2024/04/18 03:08:31;;;;;;;4.60;3.40;;;5.30;99.90;;;;;;5345167;26;20449;-68
2024/04/18 03:11:20;;;;;;;6.70;4.50;;;5.30;99.90;;;;;;5348306;26;20514;-68
2024/04/18 03:14:06;;;;;;;7.37;4.00;;;5.30;99.90;;;;;;5348498;26;20426;-68
2024/04/18 03:16:38;;;;;;;5.63;3.87;;;5.20;99.90;;;;;;5347110;26;20491;-68
2024/04/18 03:19:18;;;;;;;13.43;11.20;;;5.20;99.90;;;;;;5348233;26;20438;-68
2024/04/18 03:21:54;;;;;;;7.20;4.70;;;5.20;99.90;;;;;;5345363;26;20453;-68
2024/04/18 03:24:23;;;;;;;8.60;5.97;;;5.20;99.90;;;;;;5347520;26;20813;-68
2024/04/18 03:26:54;;;;;;;33.93;24.17;;;5.20;99.90;;;;;;5346966;26;20441;-68
2024/04/18 03:29:21;;;;;;;12.37;9.80;;;5.10;99.90;;;;;;5346793;26;20446;-68
2024/04/18 03:32:05;;;;;;;18.00;11.07;;;5.10;99.90;;;;;;5347967;26;20402;-68
2024/04/18 03:34:45;;;;;;;11.03;8.17;;;5.10;99.90;;;;;;5347440;26;20438;-68
2024/04/18 03:37:15;;;;;;;10.17;8.53;;;5.10;99.90;;;;;;5346648;26;20457;-68
2024/04/18 03:39:45;;;;;;;6.83;6.20;;;5.00;99.90;;;;;;5346688;26;20560;-68
2024/04/18 03:42:15;;;;;;;8.03;6.23;;;5.00;99.90;;;;;;5350742;26;20406;-68
2024/04/18 03:44:54;;;;;;;7.90;6.57;;;5.00;99.90;;;;;;5350066;26;20453;-68
2024/04/18 03:47:27;;;;;;;8.20;6.00;;;5.00;99.90;;;;;;5347909;26;20548;-68
2024/04/18 03:50:09;;;;;;;7.33;5.80;;;4.90;99.90;;;;;;5350933;26;20868;-68
2024/04/18 03:52:40;;;;;;;9.20;5.70;;;4.90;99.90;;;;;;5350110;26;20845;-68
2024/04/18 03:55:26;;;;;;;10.20;5.77;;;4.90;99.90;;;;;;5350945;26;20423;-68
2024/04/18 03:57:56;;;;;;;7.33;5.23;;;4.90;99.90;;;;;;5347805;26;20506;-69
2024/04/18 04:00:42;;;;;;;8.17;5.60;;;4.80;99.90;;;;;;5349869;26;20497;-68
2024/04/18 04:03:15;;;;;;;6.10;4.87;;;4.80;99.90;;;;;;5347761;26;20514;-68
2024/04/18 04:05:43;;;;;;;7.85;5.50;;;4.80;99.90;;;;;;5350127;26;20353;-68
2024/04/18 04:08:13;;;;;;;8.77;6.40;;;4.80;99.90;;;;;;5350032;26;20709;-68
2024/04/18 04:10:41;;;;;;;9.40;5.50;;;4.80;99.90;;;;;;5349599;26;20449;-68
2024/04/18 04:13:11;;;;;;;8.90;5.27;;;4.80;99.90;;;;;;5349662;26;20438;-68
2024/04/18 04:15:42;;;;;;;9.70;5.40;;;4.70;99.90;;;;;;5347854;26;20457;-68
2024/04/18 04:18:15;;;;;;;5.67;4.70;;;4.70;99.90;;;;;;5349573;26;20449;-68
2024/04/18 04:20:43;;;;;;;7.07;5.40;;;4.70;99.90;;;;;;5350498;26;20597;-68
2024/04/18 04:23:13;;;;;;;5.33;4.70;;;4.60;99.90;;;;;;5349212;26;21140;-68
2024/04/18 04:25:55;;;;;;;6.60;5.53;;;4.60;99.90;;;;;;5350288;26;20404;-68
2024/04/18 04:28:26;;;;;;;8.33;5.13;;;4.60;99.90;;;;;;5349682;26;20498;-68
2024/04/18 04:30:53;;;;;;;8.23;6.10;;;4.60;99.90;;;;;;5349477;26;20445;-68
2024/04/18 04:33:30;;;;;;;6.30;5.60;;;4.60;99.90;;;;;;5347940;26;20983;-68
2024/04/18 04:35:57;;;;;;;7.13;5.33;;;4.60;99.90;;;;;;5349896;26;20437;-68
2024/04/18 04:38:27;;;;;;;6.63;4.77;;;4.50;99.90;;;;;;5349506;26;20438;-68
2024/04/18 04:40:55;;;;;;;6.67;5.90;;;4.50;99.90;;;;;;5350535;26;20442;-68
2024/04/18 04:43:25;;;;;;;9.20;5.60;;;4.50;99.90;;;;;;5349303;26;20449;-68
2024/04/18 04:45:54;;;;;;;8.33;6.20;;;4.50;99.90;;;;;;5349185;26;20446;-68
2024/04/18 04:48:40;;;;;;;7.20;6.00;;;4.50;99.90;;;;;;5350301;26;20498;-68
2024/04/18 04:51:10;;;;;;;7.57;5.97;;;4.50;99.90;;;;;;5349748;26;20523;-68
2024/04/18 04:53:40;;;;;;;6.43;5.30;;;4.50;99.90;;;;;;5350577;26;20446;-68
2024/04/18 04:56:30;;;;;;;7.40;5.60;;;4.50;99.90;;;;;;5349500;26;20462;-68
2024/04/18 04:59:21;;;;;;;7.60;6.50;;;4.50;99.90;;;;;;5348719;26;20531;-68
2024/04/18 05:01:51;;;;;;;8.57;6.00;;;4.50;99.90;;;;;;5349083;26;20442;-68
2024/04/18 05:04:44;;;;;;;9.73;5.33;;;4.50;99.90;;;;;;5348961;26;20800;-68
2024/04/18 05:07:29;;;;;;;6.30;5.50;;;4.50;99.90;;;;;;5349905;26;20403;-68
2024/04/18 05:10:19;;;;;;;8.03;5.50;;;4.50;99.90;;;;;;5348397;26;20477;-68
2024/04/18 05:12:48;;;;;;;5.10;4.60;;;4.50;99.90;;;;;;5349738;26;20848;-68
2024/04/18 05:15:37;;;;;;;10.90;5.00;;;4.50;99.90;;;;;;5349762;26;20398;-68
2024/04/18 05:18:05;;;;;;;7.53;4.37;;;4.50;99.90;;;;;;5349743;26;20399;-68
2024/04/18 05:20:38;;;;;;;4.53;4.10;;;4.60;99.90;;;;;;5348130;26;21116;-68
2024/04/18 05:23:06;;;;;;;6.90;4.07;;;4.60;99.90;;;;;;5346610;26;20893;-69
2024/04/18 05:25:38;;;;;;;6.57;4.83;;;4.60;99.90;;;;;;5347071;26;20458;-69
2024/04/18 05:28:29;;;;;;;5.50;4.60;;;4.60;99.90;;;;;;5349596;26;20446;-69
2024/04/18 05:31:06;;;;;;;8.60;4.80;;;4.70;99.90;;;;;;5349688;26;20490;-69
2024/04/18 05:33:37;;;;;;;6.60;3.90;;;4.70;99.90;;;;;;5349780;26;20398;-69
2024/04/18 05:36:10;;;;;;;5.50;3.63;;;4.70;99.90;;;;;;5346543;26;20457;-68
2024/04/18 05:38:40;;;;;;;5.80;4.23;;;4.80;99.90;;;;;;5349483;26;20469;-69
2024/04/18 05:41:10;;;;;;;5.93;4.00;;;4.80;99.90;;;;;;5348552;26;20501;-68
2024/04/18 05:43:52;;;;;;;5.47;4.10;;;4.80;99.90;;;;;;5346504;26;20509;-69
2024/04/18 05:46:23;;;;;;;5.60;3.97;;;4.90;99.90;;;;;;5349018;26;20778;-68
2024/04/18 05:48:54;;;;;;;6.67;3.53;;;4.90;99.90;;;;;;5350050;26;20402;-68
2024/04/18 05:51:26;;;;;;;5.00;4.00;;;4.90;99.90;;;;;;5349688;26;21006;-69
2024/04/18 05:54:15;;;;;;;5.10;3.87;;;5.00;99.90;;;;;;5349039;26;20610;-68
2024/04/18 05:57:04;;;;;;;11.37;4.47;;;5.00;99.90;;;;;;5349861;26;20989;-69
2024/04/18 05:59:53;;;;;;;4.90;3.33;;;5.10;99.90;;;;;;5346304;26;20809;-68
2024/04/18 06:02:23;;;;;;;6.60;3.30;;;5.20;99.90;;;;;;5346459;26;20830;-68
2024/04/18 06:04:53;;;;;;;7.30;4.30;;;5.30;99.90;;;;;;5349008;26;20435;-68
2024/04/18 06:07:45;;;;;;;4.87;3.57;;;5.40;99.90;;;;;;5349662;26;20856;-68
2024/04/18 06:10:15;;;;;;;4.67;3.30;;;5.60;99.90;;;;;;5349545;26;20446;-68
2024/04/18 06:12:45;;;;;;;6.17;3.90;;;5.90;99.90;;;;;;5347885;26;20523;-68
2024/04/18 06:15:16;;;;;;;4.73;4.10;;;6.10;99.90;;;;;;5349343;26;20479;-68
2024/04/18 06:17:46;;;;;;;6.67;3.97;;;6.30;99.90;;;;;;5349886;26;20495;-68
2024/04/18 06:20:16;;;;;;;5.03;4.00;;;6.50;99.90;;;;;;5348389;26;20574;-69
2024/04/18 06:22:50;;;;;;;5.00;3.83;;;6.80;99.90;;;;;;5349781;26;20500;-70
2024/04/18 06:25:27;;;;;;;6.03;3.63;;;7.00;99.90;;;;;;5349818;26;20404;-69
2024/04/18 06:27:58;;;;;;;5.53;3.87;;;7.20;99.90;;;;;;5348776;26;20441;-69
2024/04/18 06:30:28;;;;;;;6.63;3.90;;;7.40;99.90;;;;;;5349337;26;20449;-68
2024/04/18 06:32:59;;;;;;;7.03;3.93;;;7.60;99.90;;;;;;5347752;26;20453;-69
2024/04/18 06:35:30;;;;;;;5.47;3.83;;;7.80;99.90;;;;;;5349222;26;20405;-69
2024/04/18 06:38:02;;;;;;;7.40;4.40;;;8.00;99.90;;;;;;5349048;26;20500;-69
2024/04/18 06:40:32;;;;;;;6.37;4.77;;;8.20;99.90;;;;;;5349356;26;20450;-69
2024/04/18 06:43:02;;;;;;;6.43;5.40;;;8.40;99.90;;;;;;5347655;26;20449;-69
2024/04/18 06:45:33;;;;;;;7.43;5.80;;;8.60;99.90;;;;;;5347761;26;21093;-69
2024/04/18 06:48:03;;;;;;;6.83;5.90;;;8.70;99.90;;;;;;5349349;26;20439;-69
2024/04/18 06:50:33;;;;;;;7.50;6.80;;;8.90;99.90;;;;;;5347348;26;21062;-70
2024/04/18 06:53:06;;;;;;;7.63;6.20;;;9.00;99.90;;;;;;5345575;26;20453;-69
2024/04/18 06:55:36;;;;;;;7.77;6.97;;;9.10;99.90;;;;;;5345576;26;20449;-70
2024/04/18 06:58:06;;;;;;;7.90;6.53;;;9.20;99.90;;;;;;5349026;26;20399;-69
2024/04/18 07:00:37;;;;;;;7.60;6.73;;;9.40;99.90;;;;;;5347432;26;20454;-69
2024/04/18 07:03:06;;;;;;;8.17;5.80;;;9.50;99.90;;;;;;5348413;26;20445;-69
2024/04/18 07:05:51;;;;;;;8.70;6.87;;;9.60;99.90;;;;;;5349133;26;20410;-69
2024/04/18 07:08:27;;;;;;;11.57;7.40;;;9.80;99.90;;;;;;5345420;26;20560;-69
2024/04/18 07:10:58;;;;;;;7.17;6.40;;;9.90;99.90;;;;;;5348570;26;20461;-70
2024/04/18 07:13:29;;;;;;;10.23;6.20;;;10.00;99.90;;;;;;5348570;26;20398;-70
2024/04/18 07:16:05;;;;;;;8.27;6.00;;;10.10;99.90;;;;;;5344422;26;20501;-69
2024/04/18 07:18:54;;;;;;;7.67;4.97;;;10.20;99.90;;;;;;5348342;26;20417;-69
2024/04/18 07:21:22;;;;;;;6.13;4.20;;;10.30;99.90;;;;;;5348126;26;20924;-70
2024/04/18 07:23:54;;;;;;;4.47;3.90;;;10.40;99.90;;;;;;5346884;26;21033;-70
2024/04/18 07:26:45;;;;;;;5.07;2.80;;;10.50;99.90;;;;;;5348339;26;20394;-69
2024/04/18 07:29:15;;;;;;;5.87;3.37;;;10.60;99.90;;;;;;5348159;26;20753;-70
2024/04/18 07:31:45;;;;;;;5.73;3.70;;;10.50;99.90;;;;;;5347057;26;20498;-70
2024/04/18 07:34:15;;;;;;;4.83;3.10;;;10.60;99.90;;;;;;5346963;26;20498;-70
2024/04/18 07:36:47;;;;;;;4.20;1.90;;;10.60;99.90;;;;;;5348767;26;20410;-69
2024/04/18 07:39:18;;;;;;;4.00;2.20;;;10.70;99.90;;;;;;5347297;26;20565;-69
2024/04/18 07:41:49;;;;;;;3.23;1.90;;;10.80;99.90;;;;;;5345702;26;20449;-69
2024/04/18 07:44:19;;;;;;;3.20;1.97;;;11.00;99.90;;;;;;5347830;26;20446;-69
2024/04/18 07:46:53;;;;;;;4.20;2.40;;;11.00;99.90;;;;;;5349205;26;20452;-69
2024/04/18 07:49:23;;;;;;;4.50;3.13;;;11.00;99.90;;;;;;5347173;26;20561;-69
2024/04/18 07:51:53;;;;;;;4.53;2.43;;;10.90;99.90;;;;;;5345744;26;20481;-69
2024/04/18 07:54:29;;;;;;;4.80;2.40;;;10.80;99.90;;;;;;5345713;26;20457;-69
2024/04/18 07:56:59;;;;;;;3.87;2.67;;;10.70;99.90;;;;;;5348094;26;21038;-69
2024/04/18 07:59:30;;;;;;;4.00;2.43;;;10.60;99.90;;;;;;5348303;26;20446;-70
2024/04/18 08:02:01;;;;;;;4.53;2.60;;;10.50;99.90;;;;;;5348533;26;20430;-70
2024/04/18 08:04:33;;;;;;;3.23;2.67;;;10.60;99.90;;;;;;5345568;26;20449;-69
2024/04/18 08:07:23;;;;;;;5.23;2.90;;;10.80;99.90;;;;;;5347225;26;20476;-69
2024/04/18 08:10:02;;;;;;;4.60;2.67;;;10.90;99.90;;;;;;5346137;26;20643;-69
2024/04/18 08:12:39;;;;;;;3.87;2.37;;;10.90;99.90;;;;;;5349425;26;20786;-70
2024/04/18 08:15:14;;;;;;;3.30;2.20;;;10.80;99.90;;;;;;5345405;26;20465;-70
2024/04/18 08:17:52;;;;;;;4.47;2.37;;;10.70;99.90;;;;;;5348327;26;20825;-70
2024/04/18 08:20:22;;;;;;;3.00;1.77;;;10.70;99.90;;;;;;5346759;26;20537;-70
2024/04/18 08:22:52;;;;;;;2.60;1.33;;;10.70;99.90;;;;;;5346581;26;20465;-69
2024/04/18 08:25:25;;;;;;;2.90;1.70;;;10.90;99.90;;;;;;5346667;26;20450;-70
2024/04/18 08:27:55;;;;;;;4.00;2.00;;;11.00;99.90;;;;;;5350812;26;20927;-70
2024/04/18 08:30:26;;;;;;;2.93;1.40;;;11.00;99.90;;;;;;5350499;26;20462;-70
2024/04/18 08:32:56;;;;;;;3.47;2.37;;;11.00;99.90;;;;;;5351405;26;20406;-70
2024/04/18 08:35:26;;;;;;;2.70;1.40;;;10.90;99.90;;;;;;5348504;26;20561;-70
2024/04/18 08:37:56;;;;;;;3.57;1.70;;;10.80;99.90;;;;;;5350556;26;20497;-70
2024/04/18 08:40:30;;;;;;;3.80;2.00;;;10.60;99.90;;;;;;5354895;26;20453;-70
2024/04/18 08:43:00;;;;;;;5.20;2.07;;;10.60;99.90;;;;;;5353650;26;20446;-70
2024/04/18 08:45:34;;;;;;;4.13;2.00;;;10.50;99.90;;;;;;5351688;26;20493;-70
2024/04/18 08:48:09;;;;;;;4.37;1.73;;;10.50;99.90;;;;;;5350330;26;20456;-70
2024/04/18 08:50:42;;;;;;;4.53;1.80;;;10.60;99.90;;;;;;5350774;26;20981;-70
2024/04/18 08:53:12;;;;;;;4.53;1.60;;;10.70;99.90;;;;;;5350543;26;20399;-70
2024/04/18 08:55:50;;;;;;;3.00;1.60;;;10.80;99.90;;;;;;5349113;26;20556;-70
2024/04/18 08:58:22;;;;;;;4.27;1.80;;;10.80;99.90;;;;;;5350218;26;20394;-70
2024/04/18 09:00:52;;;;;;;3.20;1.60;;;10.80;99.90;;;;;;5350253;26;20798;-70
2024/04/18 09:03:22;;;;;;;3.97;2.37;;;10.80;99.90;;;;;;5347325;26;20493;-70
2024/04/18 09:05:54;;;;;;;2.57;1.50;;;10.80;99.90;;;;;;5348826;26;20576;-70
2024/04/18 09:08:24;;;;;;;5.20;2.00;;;10.80;99.90;;;;;;5347014;26;20883;-70
2024/04/18 09:10:57;;;;;;;3.07;1.90;;;10.90;99.90;;;;;;5348729;26;20586;-70
2024/04/18 09:13:27;;;;;;;3.45;1.60;;;10.90;99.90;;;;;;5349543;26;21114;-70
2024/04/18 09:15:58;;;;;;;4.47;1.30;;;11.00;99.90;;;;;;5347042;26;20490;-70
2024/04/18 09:18:31;;;;;;;5.00;2.30;;;11.00;99.90;;;;;;5349744;26;20418;-70
2024/04/18 09:21:01;;;;;;;4.90;2.53;;;11.10;99.90;;;;;;5349879;26;20454;-70
2024/04/18 09:23:33;;;;;;;5.57;1.97;;;11.10;99.90;;;;;;5348530;26;20539;-70
2024/04/18 09:26:06;;;;;;;4.33;1.50;;;11.10;99.90;;;;;;5349798;26;20554;-70
2024/04/18 09:28:38;;;;;;;4.77;1.50;;;11.20;99.90;;;;;;5346675;26;20461;-70
2024/04/18 09:31:09;;;;;;;3.77;1.60;;;11.10;99.90;;;;;;5349708;26;20445;-70
2024/04/18 09:33:39;;;;;;;4.77;2.07;;;11.00;99.90;;;;;;5348505;26;20434;-70
2024/04/18 09:36:10;;;;;;;7.30;1.83;;;11.00;99.90;;;;;;5346929;26;21004;-70
2024/04/18 09:38:46;;;;;;;5.23;2.00;;;11.00;99.90;;;;;;5349057;26;20416;-70
2024/04/18 09:41:25;;;;;;;4.10;2.33;;;10.90;99.90;;;;;;5348876;26;20500;-70
2024/04/18 09:44:03;;;;;;;3.93;1.60;;;10.90;99.90;;;;;;5350179;26;20437;-70
2024/04/18 09:46:34;;;;;;;6.67;2.17;;;10.90;99.90;;;;;;5350157;26;20394;-70
2024/04/18 09:49:05;;;;;;;5.90;2.20;;;11.00;99.90;;;;;;5349202;26;21031;-70
2024/04/18 09:51:35;;;;;;;2.97;1.77;;;11.10;99.90;;;;;;5346336;26;20552;-70
2024/04/18 09:54:07;;;;;;;4.47;2.40;;;11.10;99.90;;;;;;5346263;26;20568;-70
2024/04/18 09:56:40;;;;;;;3.63;2.10;;;11.30;99.90;;;;;;5349403;26;20788;-70
2024/04/18 09:59:12;;;;;;;4.10;2.00;;;11.30;99.90;;;;;;5346204;26;20458;-70
2024/04/18 10:01:44;;;;;;;3.60;1.43;;;11.40;99.90;;;;;;5349388;26;20434;-70
2024/04/18 10:04:14;;;;;;;6.43;1.50;;;11.50;99.90;;;;;;5349476;26;20446;-70
2024/04/18 10:06:46;;;;;;;4.80;1.60;;;11.60;99.90;;;;;;5348012;26;20445;-70
2024/04/18 10:09:18;;;;;;;2.70;1.60;;;11.70;99.90;;;;;;5345984;26;20458;-70
2024/04/18 10:11:51;;;;;;;4.23;1.70;;;11.80;99.90;;;;;;5349204;26;20503;-70
2024/04/18 10:14:21;;;;;;;3.50;1.57;;;11.80;99.90;;;;;;5349225;26;20458;-70
2024/04/18 10:16:52;;;;;;;2.90;1.23;;;11.90;99.90;;;;;;5348089;26;20462;-70
2024/04/18 10:19:20;;;;;;;2.90;1.40;;;12.00;99.90;;;;;;5349619;26;20430;-70
2024/04/18 10:21:58;;;;;;;3.80;1.13;;;12.10;99.90;;;;;;5347901;26;20488;-70
2024/04/18 10:24:37;;;;;;;4.37;1.80;;;12.10;99.90;;;;;;5348147;26;20561;-71
2024/04/18 10:27:15;;;;;;;2.87;1.63;;;12.20;99.90;;;;;;5349256;26;20398;-70
2024/04/18 10:29:55;;;;;;;6.07;2.00;;;12.20;99.90;;;;;;5349040;26;20852;-70
2024/04/18 10:32:26;;;;;;;3.53;1.80;;;12.20;99.90;;;;;;5347968;26;21030;-70
2024/04/18 10:34:56;;;;;;;6.27;2.20;;;12.10;99.90;;;;;;5348057;26;20457;-70
2024/04/18 10:37:27;;;;;;;3.50;1.80;;;12.00;99.90;;;;;;5349227;26;20394;-70
2024/04/18 10:39:58;;;;;;;4.07;1.83;;;11.90;99.90;;;;;;5348868;26;20453;-71
2024/04/18 10:42:39;;;;;;;5.47;1.77;;;11.90;99.90;;;;;;5345838;26;20469;-71
2024/04/18 10:45:10;;;;;;;5.00;1.60;;;11.80;99.90;;;;;;5349006;26;20394;-70
2024/04/18 10:47:42;;;;;;;5.87;2.93;;;11.70;99.90;;;;;;5347534;26;20561;-71
2024/04/18 10:50:13;;;;;;;4.87;2.13;;;11.50;99.90;;;;;;5347083;26;20569;-70
2024/04/18 10:52:43;;;;;;;3.20;1.63;;;11.50;99.90;;;;;;5347543;26;20441;-71
2024/04/18 10:55:12;;;;;;;2.70;1.60;;;11.40;99.90;;;;;;5347998;26;21010;-71
2024/04/18 10:57:45;;;;;;;3.90;2.00;;;11.30;99.90;;;;;;5347599;26;20438;-70
2024/04/18 11:00:17;;;;;;;4.90;1.87;;;11.30;99.90;;;;;;5348593;26;20453;-70
2024/04/18 11:02:47;;;;;;;2.83;1.40;;;11.30;99.90;;;;;;5348558;26;20475;-70
2024/04/18 11:05:17;;;;;;;2.47;1.70;;;11.30;99.90;;;;;;5347375;26;20494;-70
2024/04/18 11:07:50;;;;;;;3.40;1.83;;;11.30;99.90;;;;;;5347093;26;20441;-70
2024/04/18 11:10:21;;;;;;;4.93;2.10;;;11.30;99.90;;;;;;5345100;26;20477;-70
2024/04/18 11:12:55;;;;;;;2.20;1.80;;;11.40;99.90;;;;;;5347668;26;20441;-70
2024/04/18 11:15:26;;;;;;;3.07;1.60;;;11.40;99.90;;;;;;5348355;26;20401;-70
2024/04/18 11:17:56;;;;;;;3.80;1.30;;;11.50;99.90;;;;;;5348361;26;20398;-70
2024/04/18 11:20:26;;;;;;;2.70;1.80;;;11.50;99.90;;;;;;5345343;26;20465;-70
2024/04/18 11:22:59;;;;;;;6.00;1.97;;;11.60;99.90;;;;;;5344895;26;20509;-71
2024/04/18 11:25:42;;;;;;;2.70;1.60;;;11.60;99.90;;;;;;5348281;26;20442;-70
2024/04/18 11:28:15;;;;;;;3.37;2.10;;;11.50;99.90;;;;;;5348008;26;20442;-70
2024/04/18 11:30:45;;;;;;;3.97;1.90;;;11.50;99.90;;;;;;5344764;26;20572;-70
2024/04/18 11:33:21;;;;;;;3.37;2.13;;;11.50;99.90;;;;;;5347037;26;20544;-70
2024/04/18 11:35:51;;;;;;;4.80;2.40;;;11.50;99.90;;;;;;5347733;26;20760;-70
2024/04/18 11:38:22;;;;;;;4.20;2.23;;;11.50;99.90;;;;;;5344804;26;20502;-70
2024/04/18 11:40:52;;;;;;;5.83;2.10;;;11.50;99.90;;;;;;5344674;26;20465;-70
2024/04/18 11:43:24;;;;;;;3.30;1.73;;;11.50;99.90;;;;;;5346824;26;21019;-70
2024/04/18 11:45:54;;;;;;;5.13;2.13;;;11.50;99.90;;;;;;5347149;26;20514;-70
2024/04/18 11:48:24;;;;;;;4.30;2.00;;;11.40;99.90;;;;;;5347518;26;20398;-70
2024/04/18 11:50:54;;;;;;;4.80;1.90;;;11.40;99.90;;;;;;5346036;26;20461;-70
2024/04/18 11:53:24;;;;;;;2.97;2.33;;;11.30;99.90;;;;;;5346271;26;20438;-70
2024/04/18 11:55:55;;;;;;;4.47;2.10;;;11.30;99.90;;;;;;5346201;26;20445;-70
2024/04/18 11:58:29;;;;;;;4.67;2.43;;;11.30;99.90;;;;;;5347448;26;20402;-70
2024/04/18 12:01:00;;;;;;;6.00;1.83;;;11.40;99.90;;;;;;5347818;26;20902;-70
2024/04/18 12:03:42;;;;;;;3.67;1.93;;;11.40;99.90;;;;;;5349891;26;20931;-70
2024/04/18 12:06:31;;;;;;;3.97;1.90;;;11.40;99.90;;;;;;5350465;26;20426;-70
2024/04/18 12:09:02;;;;;;;4.40;2.20;;;11.50;99.90;;;;;;5350514;26;20411;-70
2024/04/18 12:11:32;;;;;;;3.53;2.20;;;11.50;99.90;;;;;;5349482;26;21117;-70
2024/04/18 12:14:17;;;;;;;3.30;1.70;;;11.50;99.90;;;;;;5350506;26;20438;-70
2024/04/18 12:16:56;;;;;;;3.87;2.10;;;11.50;99.90;;;;;;5350464;26;20401;-70
2024/04/18 12:19:45;;;;;;;2.83;1.77;;;11.50;99.90;;;;;;5350197;26;20453;-70
2024/04/18 12:22:31;;;;;;;4.60;2.70;;;11.60;99.90;;;;;;5350625;26;20791;-70
2024/04/18 12:25:15;;;;;;;4.07;2.00;;;11.60;99.90;;;;;;5349916;26;20880;-70
2024/04/18 12:27:45;;;;;;;3.97;2.07;;;11.60;99.90;;;;;;5351552;26;20525;-70
2024/04/18 12:30:36;;;;;;;2.70;1.97;;;11.60;99.90;;;;;;5352547;26;20453;-70
2024/04/18 12:33:22;;;;;;;4.10;2.40;;;11.60;99.90;;;;;;5352429;26;20395;-70
2024/04/18 12:35:50;;;;;;;4.30;2.50;;;11.60;99.90;;;;;;5348899;26;20465;-70
2024/04/18 12:38:20;;;;;;;4.23;2.10;;;11.60;99.90;;;;;;5349976;26;21084;-70
2024/04/18 12:41:00;;;;;;;2.80;1.80;;;11.60;99.90;;;;;;5347513;26;20461;-70
2024/04/18 12:43:34;;;;;;;4.20;2.20;;;11.70;99.90;;;;;;5350707;26;20414;-70
2024/04/18 12:46:28;;;;;;;4.00;2.00;;;11.80;99.90;;;;;;5349289;26;20904;-71
2024/04/18 12:48:58;;;;;;;3.77;1.97;;;11.90;99.90;;;;;;5350189;26;20430;-71
2024/04/18 12:51:28;;;;;;;3.93;1.90;;;11.90;99.90;;;;;;5350013;26;20445;-70
2024/04/18 12:53:58;;;;;;;6.50;2.40;;;12.00;99.90;;;;;;5349193;26;20840;-70
2024/04/18 12:56:48;;;;;;;4.70;2.80;;;12.00;99.90;;;;;;5350109;26;20493;-70
2024/04/18 12:59:25;;;;;;;2.97;1.87;;;11.90;99.90;;;;;;5350025;26;20442;-70
2024/04/18 13:01:57;;;;;;;4.23;2.23;;;11.90;99.90;;;;;;5349967;26;20410;-70
2024/04/18 13:04:29;;;;;;;5.10;2.30;;;11.90;99.90;;;;;;5350045;26;20964;-70
2024/04/18 13:07:00;;;;;;;3.00;1.70;;;12.00;99.90;;;;;;5349940;26;20433;-70
2024/04/18 13:09:27;;;;;;;4.23;1.83;;;12.00;99.90;;;;;;5349788;26;20513;-70
2024/04/18 13:12:01;;;;;;;2.90;1.77;;;12.00;99.90;;;;;;5348828;26;20497;-70
2024/04/18 13:14:51;;;;;;;3.10;1.90;;;12.10;99.90;;;;;;5348340;26;20508;-70
2024/04/18 13:17:24;;;;;;;2.47;1.60;;;12.10;99.90;;;;;;5348699;26;20521;-70
2024/04/18 13:19:54;;;;;;;3.00;1.43;;;12.20;99.90;;;;;;5348670;26;20877;-70
2024/04/18 13:22:24;;;;;;;3.00;1.60;;;12.20;99.90;;;;;;5348644;26;20490;-70
2024/04/18 13:24:54;;;;;;;3.00;1.40;;;12.40;99.90;;;;;;5348696;26;20522;-70
2024/04/18 13:27:29;;;;;;;3.67;1.33;;;12.50;99.90;;;;;;5349035;26;20438;-70
2024/04/18 13:30:00;;;;;;;4.80;1.53;;;12.60;99.90;;;;;;5349595;26;20450;-69